sensor_id;sensor_type;location;lat;lon;timestamp;temperature;humidity
3564;DHT22;1796;52.388;13.096;2022-10-14T00:01:51;6.90;99.90
3564;DHT22;1796;52.388;13.096;2022-10-14T00:04:18;6.90;99.90
3564;DHT22;1796;52.388;13.096;2022-10-14T00:06:46;6.80;99.90
3564;DHT22;1796;52.388;13.096;2022-10-14T00:09:13;6.70;99.90
3564;DHT22;1796;52.388;13.096;2022-10-14T00:11:40;6.70;99.90
3564;DHT22;1796;52.388;13.096;2022-10-14T00:14:10;6.70;99.90
3564;DHT22;1796;52.388;13.096;2022-10-14T00:16:40;6.70;99.90
3564;DHT22;1796;52.388;13.096;2022-10-14T00:19:07;6.70;99.90
3564;DHT22;1796;52.388;13.096;2022-10-14T00:21:36;6.70;99.90
3564;DHT22;1796;52.388;13.096;2022-10-14T00:24:05;6.60;99.90
3564;DHT22;1796;52.388;13.096;2022-10-14T00:26:34;6.50;99.90
3564;DHT22;1796;52.388;13.096;2022-10-14T00:29:03;6.40;99.90
3564;DHT22;1796;52.388;13.096;2022-10-14T00:31:31;6.40;99.90
3564;DHT22;1796;52.388;13.096;2022-10-14T00:33:58;6.30;99.90
3564;DHT22;1796;52.388;13.096;2022-10-14T00:36:25;6.40;99.90
3564;DHT22;1796;52.388;13.096;2022-10-14T00:38:53;6.40;99.90
3564;DHT22;1796;52.388;13.096;2022-10-14T00:41:24;6.40;99.90
3564;DHT22;1796;52.388;13.096;2022-10-14T00:43:53;6.40;99.90
3564;DHT22;1796;52.388;13.096;2022-10-14T00:46:21;6.30;99.90
3564;DHT22;1796;52.388;13.096;2022-10-14T00:48:48;6.30;99.90
3564;DHT22;1796;52.388;13.096;2022-10-14T00:51:15;6.30;99.90
3564;DHT22;1796;52.388;13.096;2022-10-14T00:53:42;6.20;99.90
3564;DHT22;1796;52.388;13.096;2022-10-14T00:56:10;6.20;99.90
3564;DHT22;1796;52.388;13.096;2022-10-14T00:58:40;6.20;99.90
3564;DHT22;1796;52.388;13.096;2022-10-14T01:01:08;6.20;99.90
3564;DHT22;1796;52.388;13.096;2022-10-14T01:03:35;6.20;99.90
3564;DHT22;1796;52.388;13.096;2022-10-14T01:06:08;6.20;99.90
3564;DHT22;1796;52.388;13.096;2022-10-14T01:08:43;6.20;99.90
3564;DHT22;1796;52.388;13.096;2022-10-14T01:11:15;6.20;99.90
3564;DHT22;1796;52.388;13.096;2022-10-14T01:13:49;6.10;99.90
3564;DHT22;1796;52.388;13.096;2022-10-14T01:16:22;6.10;99.90
3564;DHT22;1796;52.388;13.096;2022-10-14T01:19:03;6.10;99.90
3564;DHT22;1796;52.388;13.096;2022-10-14T01:21:36;6.20;99.90
3564;DHT22;1796;52.388;13.096;2022-10-14T01:24:26;6.20;99.90
3564;DHT22;1796;52.388;13.096;2022-10-14T01:27:19;6.20;99.90
3564;DHT22;1796;52.388;13.096;2022-10-14T01:30:11;6.30;99.90
3564;DHT22;1796;52.388;13.096;2022-10-14T01:32:47;6.30;99.90
3564;DHT22;1796;52.388;13.096;2022-10-14T01:35:22;6.20;99.90
3564;DHT22;1796;52.388;13.096;2022-10-14T01:37:54;6.10;99.90
3564;DHT22;1796;52.388;13.096;2022-10-14T01:40:28;6.00;99.90
3564;DHT22;1796;52.388;13.096;2022-10-14T01:42:59;5.90;99.90
3564;DHT22;1796;52.388;13.096;2022-10-14T01:45:32;5.80;99.90
3564;DHT22;1796;52.388;13.096;2022-10-14T01:48:01;5.80;99.90
3564;DHT22;1796;52.388;13.096;2022-10-14T01:50:30;5.70;99.90
3564;DHT22;1796;52.388;13.096;2022-10-14T01:53:04;5.60;99.90
3564;DHT22;1796;52.388;13.096;2022-10-14T01:55:35;5.60;99.90
3564;DHT22;1796;52.388;13.096;2022-10-14T01:58:03;5.60;99.90
3564;DHT22;1796;52.388;13.096;2022-10-14T02:00:32;5.70;99.90
3564;DHT22;1796;52.388;13.096;2022-10-14T02:02:59;5.80;99.90
3564;DHT22;1796;52.388;13.096;2022-10-14T02:05:29;5.70;99.90
3564;DHT22;1796;52.388;13.096;2022-10-14T02:08:04;5.70;99.90
3564;DHT22;1796;52.388;13.096;2022-10-14T02:10:45;5.70;99.90
3564;DHT22;1796;52.388;13.096;2022-10-14T02:13:23;5.80;99.90
3564;DHT22;1796;52.388;13.096;2022-10-14T02:16:01;5.80;99.90
3564;DHT22;1796;52.388;13.096;2022-10-14T02:18:38;5.80;99.90
3564;DHT22;1796;52.388;13.096;2022-10-14T02:21:11;5.90;99.90
3564;DHT22;1796;52.388;13.096;2022-10-14T02:23:46;6.00;99.90
3564;DHT22;1796;52.388;13.096;2022-10-14T02:26:16;6.00;99.90
3564;DHT22;1796;52.388;13.096;2022-10-14T02:28:45;6.10;99.90
3564;DHT22;1796;52.388;13.096;2022-10-14T02:31:15;6.10;99.90
3564;DHT22;1796;52.388;13.096;2022-10-14T02:33:46;6.20;99.90
3564;DHT22;1796;52.388;13.096;2022-10-14T02:36:18;6.30;99.90
3564;DHT22;1796;52.388;13.096;2022-10-14T02:38:46;6.40;99.90
3564;DHT22;1796;52.388;13.096;2022-10-14T02:41:18;6.40;99.90
3564;DHT22;1796;52.388;13.096;2022-10-14T02:43:46;6.50;99.90
3564;DHT22;1796;52.388;13.096;2022-10-14T02:46:19;6.50;99.90
3564;DHT22;1796;52.388;13.096;2022-10-14T02:48:46;6.60;99.90
3564;DHT22;1796;52.388;13.096;2022-10-14T02:51:13;6.70;99.90
3564;DHT22;1796;52.388;13.096;2022-10-14T02:53:39;6.70;99.90
3564;DHT22;1796;52.388;13.096;2022-10-14T02:56:07;6.60;99.90
3564;DHT22;1796;52.388;13.096;2022-10-14T02:58:34;6.60;99.90
3564;DHT22;1796;52.388;13.096;2022-10-14T03:01:00;6.60;99.90
3564;DHT22;1796;52.388;13.096;2022-10-14T03:03:29;6.50;99.90
3564;DHT22;1796;52.388;13.096;2022-10-14T03:05:55;6.50;99.90
3564;DHT22;1796;52.388;13.096;2022-10-14T03:08:22;6.40;99.90
3564;DHT22;1796;52.388;13.096;2022-10-14T03:10:49;6.50;99.90
3564;DHT22;1796;52.388;13.096;2022-10-14T03:13:16;6.50;99.90
3564;DHT22;1796;52.388;13.096;2022-10-14T03:15:43;6.60;99.90
3564;DHT22;1796;52.388;13.096;2022-10-14T03:18:10;6.60;99.90
3564;DHT22;1796;52.388;13.096;2022-10-14T03:20:38;6.60;99.90
3564;DHT22;1796;52.388;13.096;2022-10-14T03:23:05;6.60;99.90
3564;DHT22;1796;52.388;13.096;2022-10-14T03:25:31;6.60;99.90
3564;DHT22;1796;52.388;13.096;2022-10-14T03:27:58;6.60;99.90
3564;DHT22;1796;52.388;13.096;2022-10-14T03:30:25;6.60;99.90
3564;DHT22;1796;52.388;13.096;2022-10-14T03:32:52;6.60;99.90
3564;DHT22;1796;52.388;13.096;2022-10-14T03:35:19;6.60;99.90
3564;DHT22;1796;52.388;13.096;2022-10-14T03:37:47;6.60;99.90
3564;DHT22;1796;52.388;13.096;2022-10-14T03:40:14;6.60;99.90
3564;DHT22;1796;52.388;13.096;2022-10-14T03:42:41;6.60;99.90
3564;DHT22;1796;52.388;13.096;2022-10-14T03:45:09;6.60;99.90
3564;DHT22;1796;52.388;13.096;2022-10-14T03:47:36;6.60;99.90
3564;DHT22;1796;52.388;13.096;2022-10-14T03:50:03;6.70;99.90
3564;DHT22;1796;52.388;13.096;2022-10-14T03:52:30;6.70;99.90
3564;DHT22;1796;52.388;13.096;2022-10-14T03:54:59;6.70;99.90
3564;DHT22;1796;52.388;13.096;2022-10-14T03:57:26;6.80;99.90
3564;DHT22;1796;52.388;13.096;2022-10-14T03:59:52;6.80;99.90
3564;DHT22;1796;52.388;13.096;2022-10-14T04:02:19;6.80;99.90
3564;DHT22;1796;52.388;13.096;2022-10-14T04:04:46;6.80;99.90
3564;DHT22;1796;52.388;13.096;2022-10-14T04:07:13;6.90;99.90
3564;DHT22;1796;52.388;13.096;2022-10-14T04:09:40;7.00;99.90
3564;DHT22;1796;52.388;13.096;2022-10-14T04:12:08;6.90;99.90
3564;DHT22;1796;52.388;13.096;2022-10-14T04:14:35;7.00;99.90
3564;DHT22;1796;52.388;13.096;2022-10-14T04:17:02;7.00;99.90
3564;DHT22;1796;52.388;13.096;2022-10-14T04:19:29;7.00;99.90
3564;DHT22;1796;52.388;13.096;2022-10-14T04:21:56;7.00;99.90
3564;DHT22;1796;52.388;13.096;2022-10-14T04:24:23;7.00;99.90
3564;DHT22;1796;52.388;13.096;2022-10-14T04:26:50;7.10;99.90
3564;DHT22;1796;52.388;13.096;2022-10-14T04:29:18;7.10;99.90
3564;DHT22;1796;52.388;13.096;2022-10-14T04:31:48;7.10;99.90
3564;DHT22;1796;52.388;13.096;2022-10-14T04:34:15;7.20;99.90
3564;DHT22;1796;52.388;13.096;2022-10-14T04:36:41;7.20;99.90
3564;DHT22;1796;52.388;13.096;2022-10-14T04:39:08;7.20;99.90
3564;DHT22;1796;52.388;13.096;2022-10-14T04:41:35;7.20;99.90
3564;DHT22;1796;52.388;13.096;2022-10-14T04:44:02;7.20;99.90
3564;DHT22;1796;52.388;13.096;2022-10-14T04:46:31;7.20;99.90
3564;DHT22;1796;52.388;13.096;2022-10-14T04:48:58;7.20;99.90
3564;DHT22;1796;52.388;13.096;2022-10-14T04:51:25;7.20;99.90
3564;DHT22;1796;52.388;13.096;2022-10-14T04:53:51;7.20;99.90
3564;DHT22;1796;52.388;13.096;2022-10-14T04:56:18;7.20;99.90
3564;DHT22;1796;52.388;13.096;2022-10-14T04:58:45;7.30;99.90
3564;DHT22;1796;52.388;13.096;2022-10-14T05:01:12;7.30;99.90
3564;DHT22;1796;52.388;13.096;2022-10-14T05:03:40;7.30;99.90
3564;DHT22;1796;52.388;13.096;2022-10-14T05:06:07;7.40;99.90
3564;DHT22;1796;52.388;13.096;2022-10-14T05:08:34;7.40;99.90
3564;DHT22;1796;52.388;13.096;2022-10-14T05:11:01;7.40;99.90
3564;DHT22;1796;52.388;13.096;2022-10-14T05:13:28;7.40;99.90
3564;DHT22;1796;52.388;13.096;2022-10-14T05:15:56;7.40;99.90
3564;DHT22;1796;52.388;13.096;2022-10-14T05:18:23;7.40;99.90
3564;DHT22;1796;52.388;13.096;2022-10-14T05:20:51;7.50;99.90
3564;DHT22;1796;52.388;13.096;2022-10-14T05:23:17;7.50;99.90
3564;DHT22;1796;52.388;13.096;2022-10-14T05:25:44;7.50;99.90
3564;DHT22;1796;52.388;13.096;2022-10-14T05:28:11;7.60;99.90
3564;DHT22;1796;52.388;13.096;2022-10-14T05:30:38;7.60;99.90
3564;DHT22;1796;52.388;13.096;2022-10-14T05:33:05;7.60;99.90
3564;DHT22;1796;52.388;13.096;2022-10-14T05:35:32;7.60;99.90
3564;DHT22;1796;52.388;13.096;2022-10-14T05:38:00;7.60;99.90
3564;DHT22;1796;52.388;13.096;2022-10-14T05:40:27;7.60;99.90
3564;DHT22;1796;52.388;13.096;2022-10-14T05:42:54;7.60;99.90
3564;DHT22;1796;52.388;13.096;2022-10-14T05:45:21;7.70;99.90
3564;DHT22;1796;52.388;13.096;2022-10-14T05:47:49;7.80;99.90
3564;DHT22;1796;52.388;13.096;2022-10-14T05:50:16;7.90;99.90
3564;DHT22;1796;52.388;13.096;2022-10-14T05:52:43;7.90;99.90
3564;DHT22;1796;52.388;13.096;2022-10-14T05:55:11;7.90;99.90
3564;DHT22;1796;52.388;13.096;2022-10-14T05:57:38;8.00;99.90
3564;DHT22;1796;52.388;13.096;2022-10-14T06:00:08;8.00;99.90
3564;DHT22;1796;52.388;13.096;2022-10-14T06:02:35;8.00;99.90
3564;DHT22;1796;52.388;13.096;2022-10-14T06:05:02;8.00;99.90
3564;DHT22;1796;52.388;13.096;2022-10-14T06:07:28;8.00;99.90
3564;DHT22;1796;52.388;13.096;2022-10-14T06:09:55;8.10;99.90
3564;DHT22;1796;52.388;13.096;2022-10-14T06:12:23;8.20;99.90
3564;DHT22;1796;52.388;13.096;2022-10-14T06:14:50;8.20;99.90
3564;DHT22;1796;52.388;13.096;2022-10-14T06:17:17;8.30;99.90
3564;DHT22;1796;52.388;13.096;2022-10-14T06:19:44;8.40;99.90
3564;DHT22;1796;52.388;13.096;2022-10-14T06:22:11;8.40;99.90
3564;DHT22;1796;52.388;13.096;2022-10-14T06:24:38;8.50;99.90
3564;DHT22;1796;52.388;13.096;2022-10-14T06:27:05;8.60;99.90
3564;DHT22;1796;52.388;13.096;2022-10-14T06:29:33;8.60;99.90
3564;DHT22;1796;52.388;13.096;2022-10-14T06:32:02;8.70;99.90
3564;DHT22;1796;52.388;13.096;2022-10-14T06:34:29;8.70;99.90
3564;DHT22;1796;52.388;13.096;2022-10-14T06:36:55;8.80;99.90
3564;DHT22;1796;52.388;13.096;2022-10-14T06:39:22;8.80;99.90
3564;DHT22;1796;52.388;13.096;2022-10-14T06:41:49;8.90;99.90
3564;DHT22;1796;52.388;13.096;2022-10-14T06:44:16;9.00;99.90
3564;DHT22;1796;52.388;13.096;2022-10-14T06:46:44;9.10;99.90
3564;DHT22;1796;52.388;13.096;2022-10-14T06:49:11;9.10;99.90
3564;DHT22;1796;52.388;13.096;2022-10-14T06:51:39;9.20;99.90
3564;DHT22;1796;52.388;13.096;2022-10-14T06:54:06;9.30;99.90
3564;DHT22;1796;52.388;13.096;2022-10-14T06:56:33;9.30;99.90
3564;DHT22;1796;52.388;13.096;2022-10-14T06:59:00;9.50;99.90
3564;DHT22;1796;52.388;13.096;2022-10-14T07:01:27;9.60;99.90
3564;DHT22;1796;52.388;13.096;2022-10-14T07:03:55;9.70;99.90
3564;DHT22;1796;52.388;13.096;2022-10-14T07:06:22;9.80;99.90
3564;DHT22;1796;52.388;13.096;2022-10-14T07:08:49;9.70;99.90
3564;DHT22;1796;52.388;13.096;2022-10-14T07:11:16;9.70;99.90
3564;DHT22;1796;52.388;13.096;2022-10-14T07:13:42;9.80;99.90
3564;DHT22;1796;52.388;13.096;2022-10-14T07:16:10;9.80;99.90
3564;DHT22;1796;52.388;13.096;2022-10-14T07:18:37;9.80;99.90
3564;DHT22;1796;52.388;13.096;2022-10-14T07:21:06;9.90;99.90
3564;DHT22;1796;52.388;13.096;2022-10-14T07:23:33;10.10;99.90
3564;DHT22;1796;52.388;13.096;2022-10-14T07:26:00;10.30;99.90
3564;DHT22;1796;52.388;13.096;2022-10-14T07:28:27;10.40;99.90
3564;DHT22;1796;52.388;13.096;2022-10-14T07:30:59;10.60;99.90
3564;DHT22;1796;52.388;13.096;2022-10-14T07:33:26;10.70;99.90
3564;DHT22;1796;52.388;13.096;2022-10-14T07:35:54;10.90;99.90
3564;DHT22;1796;52.388;13.096;2022-10-14T07:38:22;11.10;99.90
3564;DHT22;1796;52.388;13.096;2022-10-14T07:41:00;11.20;99.90
3564;DHT22;1796;52.388;13.096;2022-10-14T07:43:28;11.40;99.90
3564;DHT22;1796;52.388;13.096;2022-10-14T07:45:55;11.60;99.90
3564;DHT22;1796;52.388;13.096;2022-10-14T07:48:26;11.80;99.90
3564;DHT22;1796;52.388;13.096;2022-10-14T07:50:54;12.00;99.90
3564;DHT22;1796;52.388;13.096;2022-10-14T07:53:23;12.00;99.90
3564;DHT22;1796;52.388;13.096;2022-10-14T07:55:50;12.00;99.90
3564;DHT22;1796;52.388;13.096;2022-10-14T07:58:21;12.10;99.90
3564;DHT22;1796;52.388;13.096;2022-10-14T08:00:49;12.30;99.90
3564;DHT22;1796;52.388;13.096;2022-10-14T08:03:17;12.50;99.90
3564;DHT22;1796;52.388;13.096;2022-10-14T08:05:44;12.70;99.90
3564;DHT22;1796;52.388;13.096;2022-10-14T08:08:12;12.60;99.90
3564;DHT22;1796;52.388;13.096;2022-10-14T08:10:41;12.70;99.90
3564;DHT22;1796;52.388;13.096;2022-10-14T08:13:08;13.10;99.90
3564;DHT22;1796;52.388;13.096;2022-10-14T08:15:36;13.20;99.90
3564;DHT22;1796;52.388;13.096;2022-10-14T08:18:06;13.30;99.90
3564;DHT22;1796;52.388;13.096;2022-10-14T08:20:33;13.40;99.90
3564;DHT22;1796;52.388;13.096;2022-10-14T08:23:00;13.60;99.90
3564;DHT22;1796;52.388;13.096;2022-10-14T08:25:27;13.70;99.90
3564;DHT22;1796;52.388;13.096;2022-10-14T08:27:56;13.50;99.90
3564;DHT22;1796;52.388;13.096;2022-10-14T08:30:23;13.70;99.90
3564;DHT22;1796;52.388;13.096;2022-10-14T08:32:50;13.60;99.90
3564;DHT22;1796;52.388;13.096;2022-10-14T08:35:17;13.80;99.90
3564;DHT22;1796;52.388;13.096;2022-10-14T08:37:44;13.90;99.90
3564;DHT22;1796;52.388;13.096;2022-10-14T08:40:14;14.00;99.90
3564;DHT22;1796;52.388;13.096;2022-10-14T08:42:46;14.10;99.90
3564;DHT22;1796;52.388;13.096;2022-10-14T08:45:19;14.30;99.90
3564;DHT22;1796;52.388;13.096;2022-10-14T08:47:52;14.30;99.90
3564;DHT22;1796;52.388;13.096;2022-10-14T08:50:24;14.50;99.90
3564;DHT22;1796;52.388;13.096;2022-10-14T08:52:56;14.70;99.90
3564;DHT22;1796;52.388;13.096;2022-10-14T08:55:29;14.80;99.90
3564;DHT22;1796;52.388;13.096;2022-10-14T08:58:00;14.80;99.90
3564;DHT22;1796;52.388;13.096;2022-10-14T09:00:32;14.80;99.90
3564;DHT22;1796;52.388;13.096;2022-10-14T09:03:01;14.90;99.90
3564;DHT22;1796;52.388;13.096;2022-10-14T09:05:31;15.00;99.90
3564;DHT22;1796;52.388;13.096;2022-10-14T09:07:58;15.20;99.90
3564;DHT22;1796;52.388;13.096;2022-10-14T09:10:30;15.40;99.90
3564;DHT22;1796;52.388;13.096;2022-10-14T09:13:02;15.30;99.90
3564;DHT22;1796;52.388;13.096;2022-10-14T09:15:39;15.30;99.90
3564;DHT22;1796;52.388;13.096;2022-10-14T09:18:16;15.20;99.90
3564;DHT22;1796;52.388;13.096;2022-10-14T09:20:45;15.20;99.90
3564;DHT22;1796;52.388;13.096;2022-10-14T09:23:15;15.30;99.90
3564;DHT22;1796;52.388;13.096;2022-10-14T09:25:48;15.30;99.90
3564;DHT22;1796;52.388;13.096;2022-10-14T09:28:17;15.30;99.90
3564;DHT22;1796;52.388;13.096;2022-10-14T09:30:45;15.50;99.90
3564;DHT22;1796;52.388;13.096;2022-10-14T09:33:16;15.60;99.90
3564;DHT22;1796;52.388;13.096;2022-10-14T09:35:45;15.50;99.90
3564;DHT22;1796;52.388;13.096;2022-10-14T09:38:13;15.60;99.90
3564;DHT22;1796;52.388;13.096;2022-10-14T09:40:43;15.70;99.90
3564;DHT22;1796;52.388;13.096;2022-10-14T09:43:16;15.80;99.90
3564;DHT22;1796;52.388;13.096;2022-10-14T09:45:50;15.80;99.90
3564;DHT22;1796;52.388;13.096;2022-10-14T09:48:23;15.80;99.90
3564;DHT22;1796;52.388;13.096;2022-10-14T09:50:53;15.90;99.90
3564;DHT22;1796;52.388;13.096;2022-10-14T09:53:27;16.00;99.90
3564;DHT22;1796;52.388;13.096;2022-10-14T09:55:57;16.00;99.90
3564;DHT22;1796;52.388;13.096;2022-10-14T09:58:31;16.00;99.90
3564;DHT22;1796;52.388;13.096;2022-10-14T10:01:03;16.00;99.90
3564;DHT22;1796;52.388;13.096;2022-10-14T10:03:31;16.00;99.90
3564;DHT22;1796;52.388;13.096;2022-10-14T10:06:04;16.10;99.90
3564;DHT22;1796;52.388;13.096;2022-10-14T10:08:32;16.20;99.90
3564;DHT22;1796;52.388;13.096;2022-10-14T10:11:02;16.50;99.90
3564;DHT22;1796;52.388;13.096;2022-10-14T10:13:33;16.40;99.90
3564;DHT22;1796;52.388;13.096;2022-10-14T10:16:04;16.40;99.90
3564;DHT22;1796;52.388;13.096;2022-10-14T10:18:31;16.40;99.90
3564;DHT22;1796;52.388;13.096;2022-10-14T10:21:04;16.60;99.90
3564;DHT22;1796;52.388;13.096;2022-10-14T10:23:33;16.80;99.90
3564;DHT22;1796;52.388;13.096;2022-10-14T10:26:16;17.10;99.90
3564;DHT22;1796;52.388;13.096;2022-10-14T10:28:47;17.20;99.90
3564;DHT22;1796;52.388;13.096;2022-10-14T10:31:42;17.30;99.90
3564;DHT22;1796;52.388;13.096;2022-10-14T10:37:21;17.60;99.90
3564;DHT22;1796;52.388;13.096;2022-10-14T10:40:07;17.50;99.90
3564;DHT22;1796;52.388;13.096;2022-10-14T10:42:41;17.60;99.90
3564;DHT22;1796;52.388;13.096;2022-10-14T10:45:15;17.80;99.90
3564;DHT22;1796;52.388;13.096;2022-10-14T10:47:50;17.70;99.90
3564;DHT22;1796;52.388;13.096;2022-10-14T10:50:30;17.50;99.90
3564;DHT22;1796;52.388;13.096;2022-10-14T10:53:35;17.50;99.90
3564;DHT22;1796;52.388;13.096;2022-10-14T10:56:13;17.50;99.90
3564;DHT22;1796;52.388;13.096;2022-10-14T10:59:07;17.80;99.90
3564;DHT22;1796;52.388;13.096;2022-10-14T11:01:44;18.10;99.90
3564;DHT22;1796;52.388;13.096;2022-10-14T11:04:28;18.20;99.90
3564;DHT22;1796;52.388;13.096;2022-10-14T11:07:05;18.00;99.90
3564;DHT22;1796;52.388;13.096;2022-10-14T11:09:56;17.80;99.90
3564;DHT22;1796;52.388;13.096;2022-10-14T11:12:49;17.60;99.90
3564;DHT22;1796;52.388;13.096;2022-10-14T11:15:27;17.50;99.90
3564;DHT22;1796;52.388;13.096;2022-10-14T11:18:00;17.40;99.90
3564;DHT22;1796;52.388;13.096;2022-10-14T11:20:37;17.30;99.90
3564;DHT22;1796;52.388;13.096;2022-10-14T11:23:24;17.30;99.90
3564;DHT22;1796;52.388;13.096;2022-10-14T11:26:00;17.40;99.90
3564;DHT22;1796;52.388;13.096;2022-10-14T11:28:47;17.30;99.90
3564;DHT22;1796;52.388;13.096;2022-10-14T11:31:25;17.50;99.90
3564;DHT22;1796;52.388;13.096;2022-10-14T11:34:10;17.60;99.90
3564;DHT22;1796;52.388;13.096;2022-10-14T11:36:45;17.80;99.90
3564;DHT22;1796;52.388;13.096;2022-10-14T11:39:27;18.00;99.90
3564;DHT22;1796;52.388;13.096;2022-10-14T11:42:04;18.20;99.90
3564;DHT22;1796;52.388;13.096;2022-10-14T11:44:37;18.40;99.90
3564;DHT22;1796;52.388;13.096;2022-10-14T11:47:09;18.40;99.90
3564;DHT22;1796;52.388;13.096;2022-10-14T11:49:44;18.50;99.90
3564;DHT22;1796;52.388;13.096;2022-10-14T11:52:18;18.60;99.90
3564;DHT22;1796;52.388;13.096;2022-10-14T11:54:51;18.60;99.90
3564;DHT22;1796;52.388;13.096;2022-10-14T11:57:26;18.60;99.90
3564;DHT22;1796;52.388;13.096;2022-10-14T12:00:14;18.50;99.90
3564;DHT22;1796;52.388;13.096;2022-10-14T12:02:46;18.60;99.90
3564;DHT22;1796;52.388;13.096;2022-10-14T12:05:20;18.80;99.90
3564;DHT22;1796;52.388;13.096;2022-10-14T12:07:59;18.90;99.90
3564;DHT22;1796;52.388;13.096;2022-10-14T12:10:32;19.20;99.90
3564;DHT22;1796;52.388;13.096;2022-10-14T12:13:00;18.90;99.90
3564;DHT22;1796;52.388;13.096;2022-10-14T12:15:32;18.70;99.90
3564;DHT22;1796;52.388;13.096;2022-10-14T12:18:01;18.50;99.90
3564;DHT22;1796;52.388;13.096;2022-10-14T12:20:34;18.50;99.90
3564;DHT22;1796;52.388;13.096;2022-10-14T12:23:07;18.40;99.90
3564;DHT22;1796;52.388;13.096;2022-10-14T12:25:42;18.50;99.90
3564;DHT22;1796;52.388;13.096;2022-10-14T12:28:11;18.70;99.90
3564;DHT22;1796;52.388;13.096;2022-10-14T12:30:41;19.00;99.90
3564;DHT22;1796;52.388;13.096;2022-10-14T12:33:09;19.10;99.90
3564;DHT22;1796;52.388;13.096;2022-10-14T12:36:00;19.10;99.90
3564;DHT22;1796;52.388;13.096;2022-10-14T12:38:29;19.10;99.90
3564;DHT22;1796;52.388;13.096;2022-10-14T12:41:31;19.10;99.90
3564;DHT22;1796;52.388;13.096;2022-10-14T12:44:00;19.50;99.90
3564;DHT22;1796;52.388;13.096;2022-10-14T12:46:27;19.50;99.90
3564;DHT22;1796;52.388;13.096;2022-10-14T12:48:56;19.60;99.90
3564;DHT22;1796;52.388;13.096;2022-10-14T12:51:24;19.30;99.90
3564;DHT22;1796;52.388;13.096;2022-10-14T12:54:14;19.50;99.90
3564;DHT22;1796;52.388;13.096;2022-10-14T12:56:44;19.40;99.90
3564;DHT22;1796;52.388;13.096;2022-10-14T12:59:22;19.20;99.90
3564;DHT22;1796;52.388;13.096;2022-10-14T13:01:54;19.30;99.90
3564;DHT22;1796;52.388;13.096;2022-10-14T13:04:21;19.30;99.90
3564;DHT22;1796;52.388;13.096;2022-10-14T13:07:29;19.50;99.90
3564;DHT22;1796;52.388;13.096;2022-10-14T13:09:58;19.70;99.90
3564;DHT22;1796;52.388;13.096;2022-10-14T13:12:40;19.50;99.90
3564;DHT22;1796;52.388;13.096;2022-10-14T13:18:49;19.80;99.90
3564;DHT22;1796;52.388;13.096;2022-10-14T13:21:26;19.50;99.90
3564;DHT22;1796;52.388;13.096;2022-10-14T13:23:58;19.30;99.90
3564;DHT22;1796;52.388;13.096;2022-10-14T13:26:35;19.10;99.90
3564;DHT22;1796;52.388;13.096;2022-10-14T13:29:14;19.00;99.90
3564;DHT22;1796;52.388;13.096;2022-10-14T13:31:47;19.10;99.90
3564;DHT22;1796;52.388;13.096;2022-10-14T13:34:25;19.10;99.90
3564;DHT22;1796;52.388;13.096;2022-10-14T13:37:04;19.10;99.90
3564;DHT22;1796;52.388;13.096;2022-10-14T13:39:35;19.10;99.90
3564;DHT22;1796;52.388;13.096;2022-10-14T13:42:03;19.10;99.90
3564;DHT22;1796;52.388;13.096;2022-10-14T13:44:30;19.00;99.90
3564;DHT22;1796;52.388;13.096;2022-10-14T13:46:59;18.80;99.90
3564;DHT22;1796;52.388;13.096;2022-10-14T13:49:32;19.00;99.90
3564;DHT22;1796;52.388;13.096;2022-10-14T13:52:02;19.10;99.90
3564;DHT22;1796;52.388;13.096;2022-10-14T13:54:31;19.10;99.90
3564;DHT22;1796;52.388;13.096;2022-10-14T13:57:00;19.10;99.90
3564;DHT22;1796;52.388;13.096;2022-10-14T13:59:28;19.00;99.90
3564;DHT22;1796;52.388;13.096;2022-10-14T14:01:59;19.00;99.90
3564;DHT22;1796;52.388;13.096;2022-10-14T14:04:30;18.90;99.90
3564;DHT22;1796;52.388;13.096;2022-10-14T14:06:58;18.90;99.90
3564;DHT22;1796;52.388;13.096;2022-10-14T14:09:27;18.90;99.90
3564;DHT22;1796;52.388;13.096;2022-10-14T14:11:58;18.80;99.90
3564;DHT22;1796;52.388;13.096;2022-10-14T14:14:33;18.70;99.90
3564;DHT22;1796;52.388;13.096;2022-10-14T14:17:03;18.70;99.90
3564;DHT22;1796;52.388;13.096;2022-10-14T14:19:32;18.80;99.90
3564;DHT22;1796;52.388;13.096;2022-10-14T14:22:10;18.60;99.90
3564;DHT22;1796;52.388;13.096;2022-10-14T14:24:39;18.40;99.90
3564;DHT22;1796;52.388;13.096;2022-10-14T14:27:11;18.10;99.90
3564;DHT22;1796;52.388;13.096;2022-10-14T14:29:41;18.00;99.90
3564;DHT22;1796;52.388;13.096;2022-10-14T14:32:13;17.80;99.90
3564;DHT22;1796;52.388;13.096;2022-10-14T14:34:42;17.60;99.90
3564;DHT22;1796;52.388;13.096;2022-10-14T14:37:14;17.50;99.90
3564;DHT22;1796;52.388;13.096;2022-10-14T14:39:42;17.40;99.90
3564;DHT22;1796;52.388;13.096;2022-10-14T14:42:08;17.30;99.90
3564;DHT22;1796;52.388;13.096;2022-10-14T14:44:36;17.30;99.90
3564;DHT22;1796;52.388;13.096;2022-10-14T14:47:06;17.20;99.90
3564;DHT22;1796;52.388;13.096;2022-10-14T14:49:36;17.20;99.90
3564;DHT22;1796;52.388;13.096;2022-10-14T14:52:04;17.20;99.90
3564;DHT22;1796;52.388;13.096;2022-10-14T14:54:31;17.30;99.90
3564;DHT22;1796;52.388;13.096;2022-10-14T14:57:02;17.30;99.90
3564;DHT22;1796;52.388;13.096;2022-10-14T14:59:32;17.40;99.90
3564;DHT22;1796;52.388;13.096;2022-10-14T15:02:01;17.40;99.90
3564;DHT22;1796;52.388;13.096;2022-10-14T15:04:33;17.30;99.90
3564;DHT22;1796;52.388;13.096;2022-10-14T15:07:03;17.30;99.90
3564;DHT22;1796;52.388;13.096;2022-10-14T15:09:35;17.20;99.90
3564;DHT22;1796;52.388;13.096;2022-10-14T15:12:05;17.10;99.90
3564;DHT22;1796;52.388;13.096;2022-10-14T15:14:38;17.00;99.90
3564;DHT22;1796;52.388;13.096;2022-10-14T15:17:25;17.00;99.90
3564;DHT22;1796;52.388;13.096;2022-10-14T15:19:55;16.90;99.90
3564;DHT22;1796;52.388;13.096;2022-10-14T15:22:33;16.70;99.90
3564;DHT22;1796;52.388;13.096;2022-10-14T15:25:06;16.60;99.90
3564;DHT22;1796;52.388;13.096;2022-10-14T15:27:50;16.50;99.90
3564;DHT22;1796;52.388;13.096;2022-10-14T15:30:29;16.30;99.90
3564;DHT22;1796;52.388;13.096;2022-10-14T15:33:01;16.20;99.90
3564;DHT22;1796;52.388;13.096;2022-10-14T15:35:30;16.10;99.90
3564;DHT22;1796;52.388;13.096;2022-10-14T15:37:58;16.00;99.90
3564;DHT22;1796;52.388;13.096;2022-10-14T15:40:29;15.80;99.90
3564;DHT22;1796;52.388;13.096;2022-10-14T15:42:57;15.70;99.90
3564;DHT22;1796;52.388;13.096;2022-10-14T15:45:24;15.60;99.90
3564;DHT22;1796;52.388;13.096;2022-10-14T15:47:54;15.40;99.90
3564;DHT22;1796;52.388;13.096;2022-10-14T15:50:22;15.30;99.90
3564;DHT22;1796;52.388;13.096;2022-10-14T15:52:51;15.20;99.90
3564;DHT22;1796;52.388;13.096;2022-10-14T15:55:20;15.10;99.90
3564;DHT22;1796;52.388;13.096;2022-10-14T15:57:48;15.10;99.90
3564;DHT22;1796;52.388;13.096;2022-10-14T16:00:16;15.00;99.90
3564;DHT22;1796;52.388;13.096;2022-10-14T16:02:44;14.90;99.90
3564;DHT22;1796;52.388;13.096;2022-10-14T16:05:11;14.90;99.90
3564;DHT22;1796;52.388;13.096;2022-10-14T16:07:38;14.80;99.90
3564;DHT22;1796;52.388;13.096;2022-10-14T16:10:10;14.70;99.90
3564;DHT22;1796;52.388;13.096;2022-10-14T16:12:37;14.70;99.90
3564;DHT22;1796;52.388;13.096;2022-10-14T16:15:14;14.70;99.90
3564;DHT22;1796;52.388;13.096;2022-10-14T16:17:44;14.70;99.90
3564;DHT22;1796;52.388;13.096;2022-10-14T16:20:10;14.70;99.90
3564;DHT22;1796;52.388;13.096;2022-10-14T16:22:37;14.70;99.90